Terminal Aerodrome Forecast
Issued by NWS Paducah, KY

Home | Current Version | Previous Version | Text Only | Print | Product List | Glossary On
Versions: 1 2 3 4 5 6 7 8 9 10 11 12 13
000
FTUS43 KPAH 301731
TAFPAH
TAF
KPAH 301731Z 3018/0118 28008KT P6SM SCT100
     FM301900 27011G17KT P6SM SCT040
     FM302300 25006KT P6SM SKC=

USA.gov is the U.S. government's official web portal to all federal, state and local government web resources and services.